DAL2682 KDTW-KBNA
Flight info
| Callsign | DAL2682 |
|---|---|
| Flight time | 1h 15m |
| Altitude | 36000 |
| Route | BARII3 SINKR DCT JUDDI DCT ULTRA RYYMN3 |
| Aircraft | A320/M-SDE3FGHIRWY/LB1 |
Departure
| Time | 2026-05-05 20:44 |
|---|---|
| Airport | Detroit Metropolitan Wayne County Airport (KDTW) |
Arrival
| Time | 2026-05-05 21:59 |
|---|---|
| Airport | Nashville International Airport (KBNA) |
| Time | Latitude | Longitude | Altitude | Speed | Heading |
|---|---|---|---|---|---|
| 2026-05-05 20:14 | 42.21477 | -83.35372 | 646 ft | 0 kts | 179° |
| 2026-05-05 20:31 | 42.21487 | -83.35372 | 648 ft | 3 kts | 179° |
| 2026-05-05 20:31 | 42.21507 | -83.35373 | 646 ft | 3 kts | 178° |
| 2026-05-05 20:32 | 42.21527 | -83.35374 | 648 ft | 3 kts | 189° |
| 2026-05-05 20:32 | 42.21544 | -83.35367 | 647 ft | 3 kts | 231° |
| 2026-05-05 20:32 | 42.21549 | -83.35352 | 650 ft | 1 kts | 269° |
| 2026-05-05 20:32 | 42.21549 | -83.35333 | 648 ft | 2 kts | 269° |
| 2026-05-05 20:33 | 42.21550 | -83.35327 | 649 ft | 0 kts | 269° |
| 2026-05-05 20:36 | 42.21549 | -83.35339 | 647 ft | 5 kts | 269° |
| 2026-05-05 20:36 | 42.21549 | -83.35427 | 646 ft | 12 kts | 269° |
| 2026-05-05 20:36 | 42.21560 | -83.35505 | 647 ft | 8 kts | 314° |
| 2026-05-05 20:37 | 42.21614 | -83.35515 | 645 ft | 9 kts | 360° |
| 2026-05-05 20:37 | 42.21670 | -83.35514 | 643 ft | 18 kts | 0° |
| 2026-05-05 20:37 | 42.21807 | -83.35502 | 646 ft | 11 kts | 36° |
| 2026-05-05 20:37 | 42.21822 | -83.35415 | 645 ft | 9 kts | 89° |
| 2026-05-05 20:38 | 42.21823 | -83.35317 | 645 ft | 13 kts | 89° |
| 2026-05-05 20:38 | 42.21826 | -83.35175 | 646 ft | 17 kts | 89° |
| 2026-05-05 20:38 | 42.21828 | -83.34994 | 646 ft | 21 kts | 88° |
| 2026-05-05 20:38 | 42.21832 | -83.34779 | 646 ft | 22 kts | 89° |
| 2026-05-05 20:39 | 42.21837 | -83.34581 | 647 ft | 20 kts | 88° |
| 2026-05-05 20:39 | 42.21916 | -83.34459 | 646 ft | 17 kts | 33° |
| 2026-05-05 20:39 | 42.22015 | -83.34383 | 646 ft | 16 kts | 28° |
| 2026-05-05 20:39 | 42.22105 | -83.34318 | 646 ft | 14 kts | 28° |
| 2026-05-05 20:40 | 42.22186 | -83.34259 | 646 ft | 13 kts | 28° |
| 2026-05-05 20:40 | 42.22258 | -83.34207 | 646 ft | 11 kts | 29° |
| 2026-05-05 20:40 | 42.22320 | -83.34160 | 646 ft | 10 kts | 29° |
| 2026-05-05 20:40 | 42.22387 | -83.34110 | 646 ft | 12 kts | 29° |
| 2026-05-05 20:41 | 42.22437 | -83.34072 | 646 ft | 13 kts | 29° |
| 2026-05-05 20:41 | 42.22528 | -83.34005 | 647 ft | 17 kts | 28° |
| 2026-05-05 20:41 | 42.22640 | -83.33923 | 647 ft | 20 kts | 28° |
| 2026-05-05 20:41 | 42.22803 | -83.33803 | 646 ft | 19 kts | 28° |
| 2026-05-05 20:42 | 42.22864 | -83.33730 | 646 ft | 8 kts | 82° |
| 2026-05-05 20:42 | 42.22840 | -83.33665 | 644 ft | 7 kts | 123° |
| 2026-05-05 20:42 | 42.22821 | -83.33636 | 645 ft | 5 kts | 141° |
| 2026-05-05 20:42 | 42.22787 | -83.33640 | 645 ft | 6 kts | 212° |
| 2026-05-05 20:43 | 42.22727 | -83.33690 | 646 ft | 20 kts | 210° |
| 2026-05-05 20:43 | 42.22391 | -83.33942 | 647 ft | 90 kts | 208° |
| 2026-05-05 20:43 | 42.21663 | -83.34478 | 648 ft | 146 kts | 208° |
| 2026-05-05 20:43 | 42.20676 | -83.35193 | 992 ft | 163 kts | 210° |
| 2026-05-05 20:44 | 42.19685 | -83.35911 | 1787 ft | 160 kts | 212° |
| 2026-05-05 20:44 | 42.18671 | -83.36528 | 2475 ft | 163 kts | 201° |
| 2026-05-05 20:44 | 42.17525 | -83.36973 | 2780 ft | 182 kts | 201° |
| 2026-05-05 20:44 | 42.16229 | -83.37473 | 3025 ft | 205 kts | 201° |
| 2026-05-05 20:45 | 42.13162 | -83.38650 | 3725 ft | 251 kts | 201° |
| 2026-05-05 20:45 | 42.11461 | -83.39292 | 4576 ft | 255 kts | 201° |
| 2026-05-05 20:45 | 42.09750 | -83.39927 | 5544 ft | 254 kts | 202° |
| 2026-05-05 20:46 | 42.08054 | -83.40552 | 6583 ft | 250 kts | 202° |
| 2026-05-05 20:46 | 42.06374 | -83.41157 | 7486 ft | 251 kts | 201° |
| 2026-05-05 20:46 | 42.04670 | -83.41730 | 8347 ft | 254 kts | 201° |
| 2026-05-05 20:46 | 42.02965 | -83.42288 | 9186 ft | 257 kts | 201° |
| 2026-05-05 20:47 | 42.01216 | -83.42857 | 9996 ft | 260 kts | 201° |
| 2026-05-05 20:47 | 41.99417 | -83.43445 | 10447 ft | 276 kts | 201° |
| 2026-05-05 20:47 | 41.97475 | -83.44097 | 10740 ft | 296 kts | 201° |
| 2026-05-05 20:47 | 41.95468 | -83.44868 | 11315 ft | 300 kts | 207° |
| 2026-05-05 20:48 | 41.93533 | -83.45949 | 12029 ft | 303 kts | 208° |
| 2026-05-05 20:48 | 41.91577 | -83.47059 | 12745 ft | 307 kts | 208° |
| 2026-05-05 20:48 | 41.89600 | -83.48184 | 13452 ft | 311 kts | 208° |
| 2026-05-05 20:48 | 41.87598 | -83.49324 | 14082 ft | 314 kts | 208° |
| 2026-05-05 20:49 | 41.85597 | -83.50465 | 14677 ft | 318 kts | 208° |
| 2026-05-05 20:49 | 41.83553 | -83.51629 | 15273 ft | 321 kts | 208° |
| 2026-05-05 20:49 | 41.81481 | -83.52801 | 15869 ft | 325 kts | 208° |
| 2026-05-05 20:49 | 41.79387 | -83.53984 | 16457 ft | 328 kts | 208° |
| 2026-05-05 20:50 | 41.77277 | -83.55177 | 17074 ft | 330 kts | 207° |
| 2026-05-05 20:50 | 41.75144 | -83.56382 | 17679 ft | 334 kts | 207° |
| 2026-05-05 20:50 | 41.72993 | -83.57591 | 18252 ft | 337 kts | 207° |
| 2026-05-05 20:50 | 41.70824 | -83.58813 | 18761 ft | 340 kts | 207° |
| 2026-05-05 20:51 | 41.68660 | -83.60107 | 19278 ft | 342 kts | 209° |
| 2026-05-05 20:51 | 41.66513 | -83.61501 | 19787 ft | 344 kts | 210° |
| 2026-05-05 20:51 | 41.64359 | -83.62953 | 20314 ft | 347 kts | 211° |
| 2026-05-05 20:51 | 41.62200 | -83.64423 | 20825 ft | 351 kts | 211° |
| 2026-05-05 20:52 | 41.60006 | -83.65912 | 21331 ft | 354 kts | 211° |
| 2026-05-05 20:52 | 41.57794 | -83.67397 | 21804 ft | 358 kts | 211° |
| 2026-05-05 20:52 | 41.55582 | -83.68868 | 22282 ft | 362 kts | 211° |
| 2026-05-05 20:52 | 41.53316 | -83.70363 | 22775 ft | 365 kts | 211° |
| 2026-05-05 20:53 | 41.51027 | -83.71865 | 23253 ft | 368 kts | 211° |
| 2026-05-05 20:53 | 41.48718 | -83.73377 | 23679 ft | 371 kts | 211° |
| 2026-05-05 20:53 | 41.46395 | -83.74900 | 24106 ft | 373 kts | 211° |
| 2026-05-05 20:53 | 41.44053 | -83.76436 | 24524 ft | 375 kts | 211° |
| 2026-05-05 20:54 | 41.41704 | -83.77973 | 24930 ft | 377 kts | 211° |
| 2026-05-05 20:54 | 41.39345 | -83.79517 | 25285 ft | 379 kts | 212° |
| 2026-05-05 20:54 | 41.36974 | -83.81068 | 25659 ft | 381 kts | 212° |
| 2026-05-05 20:54 | 41.34584 | -83.82630 | 26020 ft | 383 kts | 212° |
| 2026-05-05 20:55 | 41.32180 | -83.84199 | 26377 ft | 385 kts | 212° |
| 2026-05-05 20:55 | 41.29796 | -83.85757 | 26729 ft | 387 kts | 212° |
| 2026-05-05 20:55 | 41.27378 | -83.87335 | 27078 ft | 389 kts | 212° |
| 2026-05-05 20:55 | 41.24930 | -83.88929 | 27422 ft | 391 kts | 212° |
| 2026-05-05 20:56 | 41.22473 | -83.90523 | 27765 ft | 393 kts | 212° |
| 2026-05-05 20:56 | 41.20011 | -83.92126 | 28112 ft | 395 kts | 212° |
| 2026-05-05 20:56 | 41.17539 | -83.93736 | 28425 ft | 397 kts | 213° |
| 2026-05-05 20:56 | 41.15051 | -83.95354 | 28713 ft | 399 kts | 213° |
| 2026-05-05 20:57 | 41.12543 | -83.96981 | 29012 ft | 402 kts | 213° |
| 2026-05-05 20:57 | 41.10025 | -83.98616 | 29311 ft | 404 kts | 213° |
| 2026-05-05 20:57 | 41.07498 | -84.00253 | 29606 ft | 406 kts | 213° |
| 2026-05-05 20:57 | 41.04949 | -84.01901 | 29894 ft | 408 kts | 213° |
| 2026-05-05 20:58 | 41.02399 | -84.03548 | 30135 ft | 409 kts | 213° |
| 2026-05-05 20:58 | 40.99828 | -84.05207 | 30359 ft | 411 kts | 213° |
| 2026-05-05 20:58 | 40.97253 | -84.06871 | 30527 ft | 414 kts | 213° |
| 2026-05-05 20:58 | 40.94686 | -84.08534 | 30676 ft | 417 kts | 214° |
| 2026-05-05 20:59 | 40.92075 | -84.10235 | 30856 ft | 420 kts | 214° |
| 2026-05-05 20:59 | 40.89433 | -84.11927 | 31050 ft | 422 kts | 214° |
| 2026-05-05 20:59 | 40.86774 | -84.13581 | 31341 ft | 422 kts | 213° |
| 2026-05-05 20:59 | 40.84098 | -84.15207 | 31636 ft | 422 kts | 213° |
| 2026-05-05 21:00 | 40.81421 | -84.16808 | 31923 ft | 422 kts | 213° |
| 2026-05-05 21:00 | 40.78770 | -84.18383 | 32198 ft | 422 kts | 214° |
| 2026-05-05 21:00 | 40.76093 | -84.19977 | 32430 ft | 422 kts | 214° |
| 2026-05-05 21:00 | 40.73416 | -84.21575 | 32684 ft | 422 kts | 215° |
| 2026-05-05 21:01 | 40.70740 | -84.23181 | 32947 ft | 423 kts | 215° |
| 2026-05-05 21:01 | 40.68065 | -84.24790 | 33221 ft | 422 kts | 216° |
| 2026-05-05 21:01 | 40.65386 | -84.26402 | 33486 ft | 422 kts | 216° |
| 2026-05-05 21:01 | 40.62713 | -84.28007 | 33762 ft | 422 kts | 216° |
| 2026-05-05 21:02 | 40.60042 | -84.29613 | 34036 ft | 422 kts | 217° |
| 2026-05-05 21:02 | 40.57375 | -84.31213 | 34320 ft | 421 kts | 217° |
| 2026-05-05 21:02 | 40.54711 | -84.32803 | 34588 ft | 420 kts | 217° |
| 2026-05-05 21:02 | 40.52044 | -84.34390 | 34832 ft | 420 kts | 217° |
| 2026-05-05 21:03 | 40.49391 | -84.35969 | 35036 ft | 419 kts | 217° |
| 2026-05-05 21:03 | 40.46766 | -84.37603 | 35243 ft | 412 kts | 222° |
| 2026-05-05 21:03 | 40.44398 | -84.39617 | 35429 ft | 398 kts | 230° |
| 2026-05-05 21:03 | 40.42381 | -84.41953 | 35601 ft | 388 kts | 236° |
| 2026-05-05 21:04 | 40.40437 | -84.44419 | 35782 ft | 388 kts | 236° |
| 2026-05-05 21:04 | 40.38495 | -84.46866 | 35842 ft | 387 kts | 235° |
| 2026-05-05 21:04 | 40.34606 | -84.51729 | 35849 ft | 385 kts | 235° |
| 2026-05-05 21:05 | 40.30725 | -84.56589 | 35843 ft | 386 kts | 236° |
| 2026-05-05 21:05 | 40.26838 | -84.61444 | 35841 ft | 386 kts | 235° |
| 2026-05-05 21:06 | 40.22943 | -84.66299 | 35842 ft | 386 kts | 235° |
| 2026-05-05 21:06 | 40.19086 | -84.71112 | 35863 ft | 385 kts | 236° |
| 2026-05-05 21:07 | 40.15200 | -84.75947 | 35867 ft | 385 kts | 236° |
| 2026-05-05 21:07 | 40.11308 | -84.80771 | 35815 ft | 385 kts | 235° |
| 2026-05-05 21:08 | 40.07414 | -84.85595 | 35830 ft | 385 kts | 236° |
| 2026-05-05 21:08 | 40.03529 | -84.90405 | 35838 ft | 384 kts | 235° |
| 2026-05-05 21:09 | 39.99673 | -84.95180 | 35839 ft | 385 kts | 235° |
| 2026-05-05 21:09 | 39.95775 | -84.99977 | 35840 ft | 385 kts | 235° |
| 2026-05-05 21:10 | 39.91871 | -85.04775 | 35813 ft | 385 kts | 235° |
| 2026-05-05 21:10 | 39.87975 | -85.09562 | 35854 ft | 385 kts | 235° |
| 2026-05-05 21:11 | 39.84081 | -85.14341 | 35864 ft | 384 kts | 235° |
| 2026-05-05 21:11 | 39.80189 | -85.19105 | 35864 ft | 384 kts | 235° |
| 2026-05-05 21:12 | 39.76326 | -85.23833 | 35864 ft | 383 kts | 235° |
| 2026-05-05 21:12 | 39.72440 | -85.28588 | 35858 ft | 383 kts | 235° |
| 2026-05-05 21:13 | 39.68549 | -85.33327 | 35815 ft | 383 kts | 235° |
| 2026-05-05 21:13 | 39.64667 | -85.38055 | 35833 ft | 383 kts | 235° |
| 2026-05-05 21:14 | 39.60777 | -85.42784 | 35853 ft | 383 kts | 235° |
| 2026-05-05 21:14 | 39.56914 | -85.47464 | 35856 ft | 382 kts | 235° |
| 2026-05-05 21:15 | 39.53034 | -85.52148 | 35857 ft | 380 kts | 235° |
| 2026-05-05 21:15 | 39.49170 | -85.56821 | 35795 ft | 380 kts | 235° |
| 2026-05-05 21:16 | 39.45305 | -85.61494 | 35809 ft | 380 kts | 235° |
| 2026-05-05 21:16 | 39.41433 | -85.66161 | 35818 ft | 380 kts | 235° |
| 2026-05-05 21:17 | 39.37556 | -85.70829 | 35825 ft | 380 kts | 235° |
| 2026-05-05 21:17 | 39.33705 | -85.75468 | 35841 ft | 381 kts | 235° |
| 2026-05-05 21:18 | 39.29822 | -85.80127 | 35854 ft | 381 kts | 235° |
| 2026-05-05 21:18 | 39.25931 | -85.84781 | 35828 ft | 381 kts | 235° |
| 2026-05-05 21:19 | 39.22041 | -85.89435 | 35833 ft | 381 kts | 235° |
| 2026-05-05 21:19 | 39.18150 | -85.94081 | 35841 ft | 381 kts | 235° |
| 2026-05-05 21:20 | 39.14266 | -85.98703 | 35842 ft | 381 kts | 234° |
| 2026-05-05 21:20 | 39.10373 | -86.03335 | 35841 ft | 381 kts | 235° |
| 2026-05-05 21:21 | 39.06480 | -86.07966 | 35840 ft | 381 kts | 235° |
| 2026-05-05 21:21 | 39.02578 | -86.12598 | 35822 ft | 383 kts | 234° |
| 2026-05-05 21:22 | 38.98654 | -86.17251 | 35839 ft | 383 kts | 234° |
| 2026-05-05 21:22 | 38.94757 | -86.21866 | 35832 ft | 383 kts | 234° |
| 2026-05-05 21:23 | 38.90838 | -86.26491 | 35845 ft | 382 kts | 234° |
| 2026-05-05 21:23 | 38.86929 | -86.31099 | 35849 ft | 381 kts | 234° |
| 2026-05-05 21:24 | 38.83018 | -86.35699 | 35822 ft | 381 kts | 234° |
| 2026-05-05 21:24 | 38.79116 | -86.40285 | 35829 ft | 381 kts | 234° |
| 2026-05-05 21:25 | 38.74817 | -86.44413 | 35830 ft | 405 kts | 219° |
| 2026-05-05 21:25 | 38.72158 | -86.45795 | 35830 ft | 417 kts | 213° |
| 2026-05-05 21:25 | 38.69427 | -86.47047 | 35829 ft | 417 kts | 213° |
| 2026-05-05 21:26 | 38.63970 | -86.49555 | 35824 ft | 417 kts | 214° |
| 2026-05-05 21:26 | 38.58506 | -86.52082 | 35796 ft | 417 kts | 213° |
| 2026-05-05 21:27 | 38.53047 | -86.54604 | 35809 ft | 417 kts | 213° |
| 2026-05-05 21:27 | 38.47580 | -86.57123 | 35814 ft | 418 kts | 213° |
| 2026-05-05 21:28 | 38.42116 | -86.59634 | 35831 ft | 417 kts | 213° |
| 2026-05-05 21:28 | 38.36692 | -86.62124 | 35834 ft | 416 kts | 213° |
| 2026-05-05 21:29 | 38.31234 | -86.64624 | 35840 ft | 416 kts | 213° |
| 2026-05-05 21:29 | 38.25789 | -86.67116 | 35849 ft | 415 kts | 213° |
| 2026-05-05 21:30 | 38.20347 | -86.69612 | 35848 ft | 415 kts | 213° |
| 2026-05-05 21:30 | 38.14949 | -86.72083 | 35839 ft | 415 kts | 213° |
| 2026-05-05 21:31 | 38.10426 | -86.74153 | 35821 ft | 415 kts | 213° |
| 2026-05-05 21:31 | 38.04954 | -86.76650 | 35629 ft | 422 kts | 213° |
| 2026-05-05 21:32 | 38.02192 | -86.77905 | 35167 ft | 420 kts | 213° |
| 2026-05-05 21:32 | 37.99445 | -86.79142 | 34670 ft | 416 kts | 213° |
| 2026-05-05 21:32 | 37.96726 | -86.80364 | 34147 ft | 413 kts | 212° |
| 2026-05-05 21:32 | 37.94019 | -86.81581 | 33602 ft | 411 kts | 212° |
| 2026-05-05 21:33 | 37.91340 | -86.82789 | 33077 ft | 406 kts | 212° |
| 2026-05-05 21:33 | 37.88698 | -86.83985 | 32581 ft | 402 kts | 212° |
| 2026-05-05 21:33 | 37.86109 | -86.85160 | 32092 ft | 398 kts | 212° |
| 2026-05-05 21:33 | 37.83515 | -86.86337 | 31600 ft | 394 kts | 211° |
| 2026-05-05 21:34 | 37.80950 | -86.87496 | 31130 ft | 391 kts | 211° |
| 2026-05-05 21:34 | 37.78397 | -86.88642 | 30636 ft | 388 kts | 210° |
| 2026-05-05 21:34 | 37.75861 | -86.89781 | 30166 ft | 384 kts | 210° |
| 2026-05-05 21:34 | 37.73351 | -86.90907 | 29658 ft | 381 kts | 210° |
| 2026-05-05 21:35 | 37.70869 | -86.92024 | 29192 ft | 376 kts | 210° |
| 2026-05-05 21:35 | 37.68422 | -86.93126 | 28744 ft | 371 kts | 210° |
| 2026-05-05 21:35 | 37.66009 | -86.94214 | 28302 ft | 366 kts | 210° |
| 2026-05-05 21:35 | 37.63621 | -86.95288 | 27884 ft | 361 kts | 209° |
| 2026-05-05 21:36 | 37.61261 | -86.96351 | 27475 ft | 357 kts | 209° |
| 2026-05-05 21:36 | 37.58960 | -86.97390 | 27074 ft | 354 kts | 209° |
| 2026-05-05 21:36 | 37.56652 | -86.98427 | 26675 ft | 351 kts | 209° |
| 2026-05-05 21:36 | 37.54365 | -86.99456 | 26286 ft | 347 kts | 209° |
| 2026-05-05 21:37 | 37.52104 | -87.00470 | 25910 ft | 344 kts | 208° |
| 2026-05-05 21:37 | 37.49857 | -87.01477 | 25512 ft | 340 kts | 208° |
| 2026-05-05 21:37 | 37.47635 | -87.02473 | 25119 ft | 337 kts | 208° |
| 2026-05-05 21:37 | 37.45435 | -87.03457 | 24728 ft | 334 kts | 208° |
| 2026-05-05 21:38 | 37.43246 | -87.04436 | 24297 ft | 332 kts | 208° |
| 2026-05-05 21:38 | 37.41078 | -87.05405 | 23918 ft | 329 kts | 207° |
| 2026-05-05 21:38 | 37.38922 | -87.06369 | 23510 ft | 328 kts | 207° |
| 2026-05-05 21:38 | 37.36770 | -87.07324 | 23049 ft | 328 kts | 205° |
| 2026-05-05 21:39 | 37.34508 | -87.07882 | 22650 ft | 337 kts | 191° |
| 2026-05-05 21:39 | 37.32106 | -87.07986 | 22316 ft | 356 kts | 189° |
| 2026-05-05 21:39 | 37.29622 | -87.08080 | 21947 ft | 358 kts | 189° |
| 2026-05-05 21:39 | 37.27123 | -87.08171 | 21573 ft | 358 kts | 189° |
| 2026-05-05 21:40 | 37.24646 | -87.08257 | 21211 ft | 356 kts | 189° |
| 2026-05-05 21:40 | 37.22178 | -87.08343 | 20847 ft | 354 kts | 189° |
| 2026-05-05 21:40 | 37.19720 | -87.08432 | 20463 ft | 352 kts | 189° |
| 2026-05-05 21:40 | 37.17284 | -87.08519 | 20122 ft | 351 kts | 189° |
| 2026-05-05 21:41 | 37.14851 | -87.08610 | 19765 ft | 349 kts | 189° |
| 2026-05-05 21:41 | 37.12426 | -87.08703 | 19407 ft | 347 kts | 189° |
| 2026-05-05 21:41 | 37.10022 | -87.08794 | 19052 ft | 345 kts | 189° |
| 2026-05-05 21:41 | 37.07622 | -87.08886 | 18700 ft | 343 kts | 189° |
| 2026-05-05 21:42 | 37.05235 | -87.08975 | 18344 ft | 342 kts | 189° |
| 2026-05-05 21:42 | 37.02865 | -87.09061 | 17978 ft | 340 kts | 189° |
| 2026-05-05 21:42 | 37.00535 | -87.09146 | 17613 ft | 337 kts | 189° |
| 2026-05-05 21:42 | 36.98195 | -87.09231 | 17267 ft | 335 kts | 189° |
| 2026-05-05 21:43 | 36.95869 | -87.09319 | 16924 ft | 333 kts | 189° |
| 2026-05-05 21:43 | 36.93552 | -87.09406 | 16664 ft | 332 kts | 189° |
| 2026-05-05 21:43 | 36.91244 | -87.09490 | 16340 ft | 330 kts | 189° |
| 2026-05-05 21:43 | 36.88952 | -87.09576 | 16004 ft | 329 kts | 189° |
| 2026-05-05 21:44 | 36.86667 | -87.09663 | 15667 ft | 327 kts | 189° |
| 2026-05-05 21:44 | 36.84428 | -87.09750 | 15339 ft | 325 kts | 189° |
| 2026-05-05 21:44 | 36.82153 | -87.09614 | 15000 ft | 332 kts | 177° |
| 2026-05-05 21:44 | 36.79921 | -87.08740 | 14599 ft | 343 kts | 161° |
| 2026-05-05 21:45 | 36.77773 | -87.07420 | 14161 ft | 345 kts | 160° |
| 2026-05-05 21:45 | 36.75620 | -87.06092 | 13811 ft | 343 kts | 160° |
| 2026-05-05 21:45 | 36.73478 | -87.04773 | 13372 ft | 343 kts | 160° |
| 2026-05-05 21:45 | 36.71358 | -87.03465 | 13080 ft | 338 kts | 160° |
| 2026-05-05 21:46 | 36.69252 | -87.02169 | 12658 ft | 336 kts | 161° |
| 2026-05-05 21:46 | 36.67160 | -87.00885 | 12274 ft | 334 kts | 161° |
| 2026-05-05 21:46 | 36.65081 | -86.99613 | 11903 ft | 331 kts | 161° |
| 2026-05-05 21:46 | 36.63041 | -86.98293 | 11523 ft | 333 kts | 154° |
| 2026-05-05 21:47 | 36.61262 | -86.96399 | 11166 ft | 341 kts | 136° |
| 2026-05-05 21:47 | 36.59985 | -86.93918 | 10954 ft | 342 kts | 117° |
| 2026-05-05 21:47 | 36.59172 | -86.91156 | 10718 ft | 338 kts | 112° |
| 2026-05-05 21:47 | 36.58415 | -86.88442 | 10410 ft | 335 kts | 113° |
| 2026-05-05 21:48 | 36.57653 | -86.85714 | 10090 ft | 333 kts | 113° |
| 2026-05-05 21:48 | 36.56889 | -86.82999 | 9548 ft | 336 kts | 114° |
| 2026-05-05 21:48 | 36.56108 | -86.80236 | 8614 ft | 340 kts | 114° |
| 2026-05-05 21:48 | 36.55328 | -86.77462 | 7728 ft | 340 kts | 114° |
| 2026-05-05 21:49 | 36.54553 | -86.74686 | 6985 ft | 336 kts | 114° |
| 2026-05-05 21:49 | 36.53861 | -86.71982 | 6563 ft | 321 kts | 112° |
| 2026-05-05 21:49 | 36.53244 | -86.69373 | 6108 ft | 308 kts | 112° |
| 2026-05-05 21:49 | 36.52668 | -86.66868 | 5740 ft | 292 kts | 112° |
| 2026-05-05 21:50 | 36.52124 | -86.64500 | 5413 ft | 277 kts | 113° |
| 2026-05-05 21:50 | 36.51604 | -86.62270 | 5112 ft | 262 kts | 114° |
| 2026-05-05 21:50 | 36.51109 | -86.60163 | 4990 ft | 246 kts | 115° |
| 2026-05-05 21:50 | 36.50540 | -86.58273 | 4999 ft | 228 kts | 131° |
| 2026-05-05 21:51 | 36.49526 | -86.56865 | 5012 ft | 212 kts | 154° |
| 2026-05-05 21:51 | 36.48238 | -86.56094 | 5010 ft | 203 kts | 167° |
| 2026-05-05 21:51 | 36.46893 | -86.55615 | 5012 ft | 199 kts | 176° |
| 2026-05-05 21:51 | 36.45530 | -86.55541 | 5016 ft | 194 kts | 188° |
| 2026-05-05 21:52 | 36.42897 | -86.56389 | 5017 ft | 198 kts | 199° |
| 2026-05-05 21:52 | 36.41584 | -86.56905 | 5030 ft | 197 kts | 200° |
| 2026-05-05 21:52 | 36.40275 | -86.57422 | 5021 ft | 196 kts | 200° |
| 2026-05-05 21:53 | 36.38968 | -86.57938 | 5019 ft | 198 kts | 200° |
| 2026-05-05 21:53 | 36.37655 | -86.58457 | 5016 ft | 198 kts | 200° |
| 2026-05-05 21:53 | 36.36359 | -86.58969 | 5017 ft | 197 kts | 200° |
| 2026-05-05 21:53 | 36.35086 | -86.59470 | 4889 ft | 189 kts | 200° |
| 2026-05-05 21:54 | 36.33847 | -86.59959 | 4661 ft | 185 kts | 199° |
| 2026-05-05 21:54 | 36.32636 | -86.60437 | 4424 ft | 179 kts | 198° |
| 2026-05-05 21:54 | 36.31476 | -86.60895 | 4187 ft | 170 kts | 199° |
| 2026-05-05 21:54 | 36.30367 | -86.61332 | 3993 ft | 165 kts | 198° |
| 2026-05-05 21:55 | 36.29282 | -86.61760 | 3747 ft | 163 kts | 198° |
| 2026-05-05 21:55 | 36.28204 | -86.62185 | 3531 ft | 163 kts | 197° |
| 2026-05-05 21:55 | 36.27129 | -86.62608 | 3320 ft | 162 kts | 197° |
| 2026-05-05 21:55 | 36.26072 | -86.63024 | 3114 ft | 161 kts | 196° |
| 2026-05-05 21:56 | 36.24999 | -86.63447 | 2904 ft | 162 kts | 196° |
| 2026-05-05 21:56 | 36.23919 | -86.63872 | 2695 ft | 163 kts | 196° |
| 2026-05-05 21:56 | 36.22843 | -86.64296 | 2482 ft | 162 kts | 196° |
| 2026-05-05 21:56 | 36.21768 | -86.64719 | 2259 ft | 159 kts | 196° |
| 2026-05-05 21:57 | 36.20759 | -86.65116 | 2054 ft | 147 kts | 197° |
| 2026-05-05 21:57 | 36.19803 | -86.65492 | 1864 ft | 142 kts | 195° |
| 2026-05-05 21:57 | 36.18865 | -86.65860 | 1675 ft | 142 kts | 197° |
| 2026-05-05 21:57 | 36.17942 | -86.66223 | 1504 ft | 138 kts | 196° |
| 2026-05-05 21:58 | 36.17021 | -86.66585 | 1301 ft | 138 kts | 195° |
| 2026-05-05 21:58 | 36.16082 | -86.66953 | 1098 ft | 142 kts | 196° |
| 2026-05-05 21:58 | 36.15169 | -86.67316 | 923 ft | 133 kts | 195° |
| 2026-05-05 21:58 | 36.14265 | -86.67668 | 721 ft | 140 kts | 196° |
| 2026-05-05 21:59 | 36.13341 | -86.68032 | 586 ft | 135 kts | 197° |
| 2026-05-05 21:59 | 36.12634 | -86.68307 | 575 ft | 66 kts | 199° |
| 2026-05-05 21:59 | 36.12352 | -86.68418 | 576 ft | 39 kts | 197° |
| 2026-05-05 21:59 | 36.12191 | -86.68480 | 570 ft | 13 kts | 190° |
| 2026-05-05 22:00 | 36.12144 | -86.68411 | 575 ft | 11 kts | 107° |
| 2026-05-05 22:00 | 36.12128 | -86.68326 | 577 ft | 8 kts | 93° |
| 2026-05-05 22:00 | 36.12156 | -86.68285 | 580 ft | 5 kts | 19° |
| 2026-05-05 22:00 | 36.12192 | -86.68273 | 575 ft | 6 kts | 14° |
| 2026-05-05 22:01 | 36.12243 | -86.68257 | 577 ft | 10 kts | 15° |
| 2026-05-05 22:01 | 36.12331 | -86.68226 | 573 ft | 15 kts | 16° |
| 2026-05-05 22:01 | 36.12446 | -86.68182 | 580 ft | 18 kts | 18° |
| 2026-05-05 22:01 | 36.12577 | -86.68137 | 574 ft | 21 kts | 15° |
| 2026-05-05 22:02 | 36.12732 | -86.68083 | 578 ft | 24 kts | 17° |
| 2026-05-05 22:02 | 36.12887 | -86.68024 | 575 ft | 23 kts | 17° |
| 2026-05-05 22:02 | 36.13034 | -86.67966 | 573 ft | 21 kts | 18° |
| 2026-05-05 22:02 | 36.13166 | -86.67914 | 573 ft | 19 kts | 18° |
| 2026-05-05 22:03 | 36.13288 | -86.67864 | 572 ft | 18 kts | 18° |
| 2026-05-05 22:03 | 36.13395 | -86.67825 | 578 ft | 15 kts | 18° |
| 2026-05-05 22:03 | 36.13485 | -86.67787 | 575 ft | 13 kts | 18° |
| 2026-05-05 22:03 | 36.13523 | -86.67711 | 574 ft | 12 kts | 105° |
| 2026-05-05 22:04 | 36.13493 | -86.67603 | 571 ft | 15 kts | 108° |
| 2026-05-05 22:04 | 36.13456 | -86.67456 | 571 ft | 20 kts | 107° |
| 2026-05-05 22:04 | 36.13419 | -86.67310 | 570 ft | 12 kts | 108° |
| 2026-05-05 22:04 | 36.13400 | -86.67258 | 571 ft | 3 kts | 136° |
| 2026-05-05 22:05 | 36.13382 | -86.67256 | 569 ft | 5 kts | 189° |
| 2026-05-05 22:05 | 36.13345 | -86.67258 | 573 ft | 3 kts | 165° |
| 2026-05-05 22:05 | 36.13339 | -86.67255 | 574 ft | 0 kts | 162° |